sensor_id;sensor_type;location;lat;lon;timestamp;pressure;altitude;pressure_sealevel;temperature;humidity
50977;BME280;36992;48.200;12.418;2022-08-02T00:01:53;96894.75;;;25.53;41.53
50977;BME280;36992;48.200;12.418;2022-08-02T00:04:19;96890.00;;;25.50;41.46
50977;BME280;36992;48.200;12.418;2022-08-02T00:06:46;96891.94;;;25.50;41.50
50977;BME280;36992;48.200;12.418;2022-08-02T00:09:12;96888.78;;;25.48;41.50
50977;BME280;36992;48.200;12.418;2022-08-02T00:11:40;96888.78;;;25.48;41.39
50977;BME280;36992;48.200;12.418;2022-08-02T00:14:06;96890.38;;;25.49;41.29
50977;BME280;36992;48.200;12.418;2022-08-02T00:16:34;96889.19;;;25.50;41.37
50977;BME280;36992;48.200;12.418;2022-08-02T00:19:01;96886.44;;;25.50;41.04
50977;BME280;36992;48.200;12.418;2022-08-02T00:21:28;96886.44;;;25.50;40.68
50977;BME280;36992;48.200;12.418;2022-08-02T00:23:54;96883.66;;;25.50;40.75
50977;BME280;36992;48.200;12.418;2022-08-02T00:26:21;96880.13;;;25.49;40.88
50977;BME280;36992;48.200;12.418;2022-08-02T00:28:47;96888.00;;;25.51;41.00
50977;BME280;36992;48.200;12.418;2022-08-02T00:31:14;96891.94;;;25.50;41.11
50977;BME280;36992;48.200;12.418;2022-08-02T00:33:42;96889.19;;;25.50;41.10
50977;BME280;36992;48.200;12.418;2022-08-02T00:36:08;96890.38;;;25.49;41.12
50977;BME280;36992;48.200;12.418;2022-08-02T00:38:34;96887.22;;;25.46;41.41
50977;BME280;36992;48.200;12.418;2022-08-02T00:41:01;96881.69;;;25.46;41.05
50977;BME280;36992;48.200;12.418;2022-08-02T00:43:27;96888.38;;;25.45;41.32
50977;BME280;36992;48.200;12.418;2022-08-02T00:45:54;96878.94;;;25.46;41.25
50977;BME280;36992;48.200;12.418;2022-08-02T00:48:20;96896.63;;;25.45;41.51
50977;BME280;36992;48.200;12.418;2022-08-02T00:50:48;96896.63;;;25.45;41.32
50977;BME280;36992;48.200;12.418;2022-08-02T00:53:14;96887.59;;;25.41;41.38
50977;BME280;36992;48.200;12.418;2022-08-02T00:55:41;96896.63;;;25.38;41.49
50977;BME280;36992;48.200;12.418;2022-08-02T00:58:07;96894.22;;;25.33;41.51
50977;BME280;36992;48.200;12.418;2022-08-02T01:00:34;96901.69;;;25.29;41.80
50977;BME280;36992;48.200;12.418;2022-08-02T01:03:00;96904.44;;;25.25;41.96
50977;BME280;36992;48.200;12.418;2022-08-02T01:05:27;96907.94;;;25.22;41.93
50977;BME280;36992;48.200;12.418;2022-08-02T01:07:54;96907.16;;;25.18;41.89
50977;BME280;36992;48.200;12.418;2022-08-02T01:10:22;96909.84;;;25.11;41.65
50977;BME280;36992;48.200;12.418;2022-08-02T01:12:48;96900.78;;;25.07;41.41
50977;BME280;36992;48.200;12.418;2022-08-02T01:15:16;96899.97;;;25.02;41.09
50977;BME280;36992;48.200;12.418;2022-08-02T01:17:46;96895.25;;;25.03;40.79
50977;BME280;36992;48.200;12.418;2022-08-02T01:20:27;96892.50;;;25.03;40.68
50977;BME280;36992;48.200;12.418;2022-08-02T01:23:14;96900.34;;;25.04;40.95
50977;BME280;36992;48.200;12.418;2022-08-02T01:25:59;96895.59;;;24.98;41.24
50977;BME280;36992;48.200;12.418;2022-08-02T01:28:34;96893.22;;;24.92;41.31
50977;BME280;36992;48.200;12.418;2022-08-02T01:31:08;96896.72;;;24.89;41.36
50977;BME280;36992;48.200;12.418;2022-08-02T01:33:40;96904.56;;;24.84;41.35
50977;BME280;36992;48.200;12.418;2022-08-02T01:36:11;96910.44;;;24.82;41.22
50977;BME280;36992;48.200;12.418;2022-08-02T01:38:42;96912.75;;;24.76;41.16
50977;BME280;36992;48.200;12.418;2022-08-02T01:41:11;96911.13;;;24.72;41.32
50977;BME280;36992;48.200;12.418;2022-08-02T01:43:43;96909.91;;;24.65;41.15
50977;BME280;36992;48.200;12.418;2022-08-02T01:46:11;96902.00;;;24.60;41.30
50977;BME280;36992;48.200;12.418;2022-08-02T01:48:40;96906.28;;;24.58;41.34
50977;BME280;36992;48.200;12.418;2022-08-02T01:51:11;96892.94;;;24.60;40.67
50977;BME280;36992;48.200;12.418;2022-08-02T01:53:39;96902.75;;;24.57;40.95
50977;BME280;36992;48.200;12.418;2022-08-02T01:56:08;96905.50;;;24.57;40.88
50977;BME280;36992;48.200;12.418;2022-08-02T01:58:38;96912.56;;;24.58;40.10
50977;BME280;36992;48.200;12.418;2022-08-02T02:01:09;96920.06;;;24.58;40.26
50977;BME280;36992;48.200;12.418;2022-08-02T02:03:37;96922.78;;;24.54;40.57
50977;BME280;36992;48.200;12.418;2022-08-02T02:06:06;96931.41;;;24.52;40.41
50977;BME280;36992;48.200;12.418;2022-08-02T02:08:37;96932.22;;;24.53;40.61
50977;BME280;36992;48.200;12.418;2022-08-02T02:11:05;96928.25;;;24.50;40.59
50977;BME280;36992;48.200;12.418;2022-08-02T02:13:32;96934.53;;;24.51;40.85
50977;BME280;36992;48.200;12.418;2022-08-02T02:16:02;96936.94;;;24.52;40.71
50977;BME280;36992;48.200;12.418;2022-08-02T02:18:33;96940.47;;;24.53;40.96
50977;BME280;36992;48.200;12.418;2022-08-02T02:21:03;96936.09;;;24.48;41.43
50977;BME280;36992;48.200;12.418;2022-08-02T02:23:30;96934.50;;;24.47;41.38
50977;BME280;36992;48.200;12.418;2022-08-02T02:25:57;96937.63;;;24.46;41.39
50977;BME280;36992;48.200;12.418;2022-08-02T02:28:26;96940.41;;;24.46;41.26
50977;BME280;36992;48.200;12.418;2022-08-02T02:30:59;96935.31;;;24.48;40.98
50977;BME280;36992;48.200;12.418;2022-08-02T02:33:30;96940.03;;;24.47;41.24
50977;BME280;36992;48.200;12.418;2022-08-02T02:35:59;96929.34;;;24.42;41.41
50977;BME280;36992;48.200;12.418;2022-08-02T02:38:29;96933.31;;;24.45;41.29
50977;BME280;36992;48.200;12.418;2022-08-02T02:40:59;96938.03;;;24.44;41.27
50977;BME280;36992;48.200;12.418;2022-08-02T02:43:27;96933.31;;;24.45;41.20
50977;BME280;36992;48.200;12.418;2022-08-02T02:45:55;96932.13;;;24.46;41.31
50977;BME280;36992;48.200;12.418;2022-08-02T02:48:22;96939.25;;;24.47;40.98
50977;BME280;36992;48.200;12.418;2022-08-02T02:50:51;96940.81;;;24.48;40.83
50977;BME280;36992;48.200;12.418;2022-08-02T02:53:19;96938.03;;;24.44;41.22
50977;BME280;36992;48.200;12.418;2022-08-02T02:55:48;96936.84;;;24.42;41.38
50977;BME280;36992;48.200;12.418;2022-08-02T02:58:15;96929.75;;;24.41;41.33
50977;BME280;36992;48.200;12.418;2022-08-02T03:00:42;96938.00;;;24.41;41.23
50977;BME280;36992;48.200;12.418;2022-08-02T03:03:27;96946.25;;;24.41;41.10
50977;BME280;36992;48.200;12.418;2022-08-02T03:05:56;96939.97;;;24.40;41.36
50977;BME280;36992;48.200;12.418;2022-08-02T03:08:22;96937.16;;;24.36;41.28
50977;BME280;36992;48.200;12.418;2022-08-02T03:10:49;96939.53;;;24.34;41.59
50977;BME280;36992;48.200;12.418;2022-08-02T03:13:16;96939.09;;;24.32;41.45
50977;BME280;36992;48.200;12.418;2022-08-02T03:15:44;96937.50;;;24.31;41.56
50977;BME280;36992;48.200;12.418;2022-08-02T03:18:29;96942.28;;;24.34;41.14
50977;BME280;36992;48.200;12.418;2022-08-02T03:20:59;96937.88;;;24.30;41.45
50977;BME280;36992;48.200;12.418;2022-08-02T03:23:26;96935.91;;;24.27;41.90
50977;BME280;36992;48.200;12.418;2022-08-02T03:25:53;96936.31;;;24.29;41.90
50977;BME280;36992;48.200;12.418;2022-08-02T03:28:19;96928.84;;;24.29;41.67
50977;BME280;36992;48.200;12.418;2022-08-02T03:30:46;96941.84;;;24.32;41.90
50977;BME280;36992;48.200;12.418;2022-08-02T03:33:12;96937.50;;;24.31;42.01
50977;BME280;36992;48.200;12.418;2022-08-02T03:35:40;96941.06;;;24.32;41.88
50977;BME280;36992;48.200;12.418;2022-08-02T03:38:10;96939.53;;;24.34;41.63
50977;BME280;36992;48.200;12.418;2022-08-02T03:40:37;96934.75;;;24.31;41.88
50977;BME280;36992;48.200;12.418;2022-08-02T03:43:04;96934.75;;;24.31;42.10
50977;BME280;36992;48.200;12.418;2022-08-02T03:45:31;96930.81;;;24.32;41.99
50977;BME280;36992;48.200;12.418;2022-08-02T03:47:58;96936.78;;;24.34;41.87
50977;BME280;36992;48.200;12.418;2022-08-02T03:50:26;96936.78;;;24.34;41.78
50977;BME280;36992;48.200;12.418;2022-08-02T03:52:54;96941.09;;;24.35;42.09
50977;BME280;36992;48.200;12.418;2022-08-02T03:55:22;96947.38;;;24.36;41.77
50977;BME280;36992;48.200;12.418;2022-08-02T03:57:49;96947.34;;;24.32;41.88
50977;BME280;36992;48.200;12.418;2022-08-02T04:00:17;96956.41;;;24.33;41.84
50977;BME280;36992;48.200;12.418;2022-08-02T04:02:45;96945.75;;;24.31;42.06
50977;BME280;36992;48.200;12.418;2022-08-02T04:05:11;96939.50;;;24.31;42.10
50977;BME280;36992;48.200;12.418;2022-08-02T04:07:38;96940.63;;;24.30;41.97
50977;BME280;36992;48.200;12.418;2022-08-02T04:10:04;96939.84;;;24.29;42.14
50977;BME280;36992;48.200;12.418;2022-08-02T04:12:32;96947.75;;;24.31;42.04
50977;BME280;36992;48.200;12.418;2022-08-02T04:14:59;96946.53;;;24.28;42.04
50977;BME280;36992;48.200;12.418;2022-08-02T04:17:29;96942.59;;;24.29;41.96
50977;BME280;36992;48.200;12.418;2022-08-02T04:20:01;96953.63;;;24.29;41.99
50977;BME280;36992;48.200;12.418;2022-08-02T04:22:34;96954.75;;;24.24;42.34
50977;BME280;36992;48.200;12.418;2022-08-02T04:25:04;96959.47;;;24.24;42.14
50977;BME280;36992;48.200;12.418;2022-08-02T04:27:33;96951.56;;;24.22;42.35
50977;BME280;36992;48.200;12.418;2022-08-02T04:30:02;96966.88;;;24.20;42.46
50977;BME280;36992;48.200;12.418;2022-08-02T04:32:29;96971.97;;;24.18;42.61
50977;BME280;36992;48.200;12.418;2022-08-02T04:34:57;96971.13;;;24.14;42.71
50977;BME280;36992;48.200;12.418;2022-08-02T04:37:24;96978.19;;;24.11;42.82
50977;BME280;36992;48.200;12.418;2022-08-02T04:39:50;96981.25;;;24.06;42.94
50977;BME280;36992;48.200;12.418;2022-08-02T04:42:20;96985.94;;;24.05;42.62
50977;BME280;36992;48.200;12.418;2022-08-02T04:44:49;96985.88;;;23.98;42.77
50977;BME280;36992;48.200;12.418;2022-08-02T04:47:16;96985.78;;;23.91;43.24
50977;BME280;36992;48.200;12.418;2022-08-02T04:49:43;96983.78;;;23.88;43.52
50977;BME280;36992;48.200;12.418;2022-08-02T04:52:09;96986.53;;;23.88;43.49
50977;BME280;36992;48.200;12.418;2022-08-02T04:54:36;96979.44;;;23.87;43.37
50977;BME280;36992;48.200;12.418;2022-08-02T04:57:03;96983.00;;;23.87;43.57
50977;BME280;36992;48.200;12.418;2022-08-02T04:59:51;96989.31;;;23.91;43.22
50977;BME280;36992;48.200;12.418;2022-08-02T05:02:17;96988.53;;;23.91;43.76
50977;BME280;36992;48.200;12.418;2022-08-02T05:04:44;96982.66;;;23.92;43.77
50977;BME280;36992;48.200;12.418;2022-08-02T05:07:10;96994.84;;;23.95;44.05
50977;BME280;36992;48.200;12.418;2022-08-02T05:09:37;96990.56;;;23.97;43.50
50977;BME280;36992;48.200;12.418;2022-08-02T05:12:04;96999.25;;;24.00;43.46
50977;BME280;36992;48.200;12.418;2022-08-02T05:14:30;97000.44;;;24.02;43.50
50977;BME280;36992;48.200;12.418;2022-08-02T05:16:58;96992.25;;;24.06;43.74
50977;BME280;36992;48.200;12.418;2022-08-02T05:19:25;96997.41;;;24.07;43.73
50977;BME280;36992;48.200;12.418;2022-08-02T05:21:51;97000.94;;;24.08;43.69
50977;BME280;36992;48.200;12.418;2022-08-02T05:24:18;96993.91;;;24.10;43.92
50977;BME280;36992;48.200;12.418;2022-08-02T05:26:44;96997.06;;;24.13;43.84
50977;BME280;36992;48.200;12.418;2022-08-02T05:29:10;97004.16;;;24.14;43.49
50977;BME280;36992;48.200;12.418;2022-08-02T05:31:37;96995.16;;;24.17;43.75
50977;BME280;36992;48.200;12.418;2022-08-02T05:34:05;97006.56;;;24.19;43.42
50977;BME280;36992;48.200;12.418;2022-08-02T05:36:31;97005.81;;;24.18;43.17
50977;BME280;36992;48.200;12.418;2022-08-02T05:38:58;97008.97;;;24.20;43.81
50977;BME280;36992;48.200;12.418;2022-08-02T05:41:24;97002.28;;;24.21;43.67
50977;BME280;36992;48.200;12.418;2022-08-02T05:43:50;97008.59;;;24.22;43.79
50977;BME280;36992;48.200;12.418;2022-08-02T05:46:17;97010.53;;;24.21;43.72
50977;BME280;36992;48.200;12.418;2022-08-02T05:48:43;97014.09;;;24.22;43.64
50977;BME280;36992;48.200;12.418;2022-08-02T05:51:16;97015.72;;;24.27;44.12
50977;BME280;36992;48.200;12.418;2022-08-02T05:53:51;97017.66;;;24.26;43.77
50977;BME280;36992;48.200;12.418;2022-08-02T05:56:23;97007.81;;;24.25;43.99
50977;BME280;36992;48.200;12.418;2022-08-02T05:58:53;97007.41;;;24.23;44.25
50977;BME280;36992;48.200;12.418;2022-08-02T06:01:26;97005.06;;;24.25;43.62
50977;BME280;36992;48.200;12.418;2022-08-02T06:03:56;97012.56;;;24.24;43.63
50977;BME280;36992;48.200;12.418;2022-08-02T06:06:28;97002.31;;;24.25;43.23
50977;BME280;36992;48.200;12.418;2022-08-02T06:08:58;97010.53;;;24.21;44.19
50977;BME280;36992;48.200;12.418;2022-08-02T06:11:33;97007.41;;;24.23;43.12
50977;BME280;36992;48.200;12.418;2022-08-02T06:14:02;97006.56;;;24.19;43.47
50977;BME280;36992;48.200;12.418;2022-08-02T06:16:29;97008.91;;;24.17;43.57
50977;BME280;36992;48.200;12.418;2022-08-02T06:18:57;97016.00;;;24.18;43.71
50977;BME280;36992;48.200;12.418;2022-08-02T06:21:26;97021.50;;;24.18;43.73
50977;BME280;36992;48.200;12.418;2022-08-02T06:23:54;97018.44;;;24.23;43.82
50977;BME280;36992;48.200;12.418;2022-08-02T06:26:23;97013.69;;;24.23;44.12
50977;BME280;36992;48.200;12.418;2022-08-02T06:28:51;97012.91;;;24.23;44.68
50977;BME280;36992;48.200;12.418;2022-08-02T06:31:18;97009.41;;;24.26;43.83
50977;BME280;36992;48.200;12.418;2022-08-02T06:33:45;97013.75;;;24.27;43.37
50977;BME280;36992;48.200;12.418;2022-08-02T06:36:15;97007.91;;;24.32;43.59
50977;BME280;36992;48.200;12.418;2022-08-02T06:38:54;97008.34;;;24.34;43.29
50977;BME280;36992;48.200;12.418;2022-08-02T06:41:23;97006.72;;;24.33;43.68
50977;BME280;36992;48.200;12.418;2022-08-02T06:43:53;97002.06;;;24.37;43.28
50977;BME280;36992;48.200;12.418;2022-08-02T06:46:21;96999.69;;;24.36;43.88
50977;BME280;36992;48.200;12.418;2022-08-02T06:48:47;97002.88;;;24.38;44.17
50977;BME280;36992;48.200;12.418;2022-08-02T06:51:14;96992.63;;;24.38;43.49
50977;BME280;36992;48.200;12.418;2022-08-02T06:53:41;96998.56;;;24.41;43.24
50977;BME280;36992;48.200;12.418;2022-08-02T06:56:09;97007.63;;;24.45;43.78
50977;BME280;36992;48.200;12.418;2022-08-02T06:58:35;97005.31;;;24.47;43.15
50977;BME280;36992;48.200;12.418;2022-08-02T07:01:02;96997.09;;;24.50;43.87
50977;BME280;36992;48.200;12.418;2022-08-02T07:03:32;96995.97;;;24.55;43.96
50977;BME280;36992;48.200;12.418;2022-08-02T07:05:58;97003.03;;;24.56;44.44
50977;BME280;36992;48.200;12.418;2022-08-02T07:08:26;96995.63;;;24.60;43.99
50977;BME280;36992;48.200;12.418;2022-08-02T07:10:56;97001.13;;;24.60;44.31
50977;BME280;36992;48.200;12.418;2022-08-02T07:13:26;96999.16;;;24.61;44.47
50977;BME280;36992;48.200;12.418;2022-08-02T07:15:53;97000.31;;;24.60;44.62
50977;BME280;36992;48.200;12.418;2022-08-02T07:18:20;97002.69;;;24.61;44.59
50977;BME280;36992;48.200;12.418;2022-08-02T07:20:46;96998.41;;;24.64;43.86
50977;BME280;36992;48.200;12.418;2022-08-02T07:23:13;96996.84;;;24.67;44.78
50977;BME280;36992;48.200;12.418;2022-08-02T07:25:40;96991.00;;;24.72;43.87
50977;BME280;36992;48.200;12.418;2022-08-02T07:28:08;96999.34;;;24.79;44.10
50977;BME280;36992;48.200;12.418;2022-08-02T07:30:36;97000.16;;;24.83;43.67
50977;BME280;36992;48.200;12.418;2022-08-02T07:33:03;97000.22;;;24.87;43.46
50977;BME280;36992;48.200;12.418;2022-08-02T07:35:30;97000.66;;;24.92;43.58
50977;BME280;36992;48.200;12.418;2022-08-02T07:37:56;96999.50;;;24.97;43.47
50977;BME280;36992;48.200;12.418;2022-08-02T07:40:24;96990.88;;;25.02;43.07
50977;BME280;36992;48.200;12.418;2022-08-02T07:42:53;97001.19;;;25.09;43.42
50977;BME280;36992;48.200;12.418;2022-08-02T07:45:21;96995.28;;;25.11;43.65
50977;BME280;36992;48.200;12.418;2022-08-02T07:47:50;96991.78;;;25.17;43.42
50977;BME280;36992;48.200;12.418;2022-08-02T07:50:18;96988.66;;;25.19;43.03
50977;BME280;36992;48.200;12.418;2022-08-02T07:52:45;96989.09;;;25.25;43.01
50977;BME280;36992;48.200;12.418;2022-08-02T07:55:13;96988.72;;;25.30;42.60
50977;BME280;36992;48.200;12.418;2022-08-02T07:57:40;96988.38;;;25.35;42.81
50977;BME280;36992;48.200;12.418;2022-08-02T08:00:07;96991.94;;;25.43;42.21
50977;BME280;36992;48.200;12.418;2022-08-02T08:02:34;96996.72;;;25.50;41.55
50977;BME280;36992;48.200;12.418;2022-08-02T08:05:03;96993.66;;;25.58;41.51
50977;BME280;36992;48.200;12.418;2022-08-02T08:07:31;96996.84;;;25.64;41.59
50977;BME280;36992;48.200;12.418;2022-08-02T08:09:57;96995.28;;;25.70;40.86
50977;BME280;36992;48.200;12.418;2022-08-02T08:12:25;96993.75;;;25.77;41.04
50977;BME280;36992;48.200;12.418;2022-08-02T08:14:51;97002.47;;;25.82;41.62
50977;BME280;36992;48.200;12.418;2022-08-02T08:17:19;96996.97;;;25.90;41.25
50977;BME280;36992;48.200;12.418;2022-08-02T08:19:45;96986.34;;;25.95;41.36
50977;BME280;36992;48.200;12.418;2022-08-02T08:22:13;96989.16;;;26.06;40.99
50977;BME280;36992;48.200;12.418;2022-08-02T08:24:40;96993.91;;;26.13;41.04
50977;BME280;36992;48.200;12.418;2022-08-02T08:27:06;96988.81;;;26.19;40.51
50977;BME280;36992;48.200;12.418;2022-08-02T08:29:39;96997.13;;;26.26;39.85
50977;BME280;36992;48.200;12.418;2022-08-02T08:32:05;96991.25;;;26.31;40.66
50977;BME280;36992;48.200;12.418;2022-08-02T08:34:32;96989.69;;;26.37;40.52
50977;BME280;36992;48.200;12.418;2022-08-02T08:36:59;96990.88;;;26.44;39.92
50977;BME280;36992;48.200;12.418;2022-08-02T08:39:28;96994.03;;;26.49;40.48
50977;BME280;36992;48.200;12.418;2022-08-02T08:41:54;96995.63;;;26.50;39.93
50977;BME280;36992;48.200;12.418;2022-08-02T08:44:21;96989.31;;;26.50;39.91
50977;BME280;36992;48.200;12.418;2022-08-02T08:46:48;96992.47;;;26.52;40.08
50977;BME280;36992;48.200;12.418;2022-08-02T08:49:24;96986.16;;;26.55;39.66
50977;BME280;36992;48.200;12.418;2022-08-02T08:51:54;96991.66;;;26.51;40.02
50977;BME280;36992;48.200;12.418;2022-08-02T08:54:23;96988.91;;;26.51;40.03
50977;BME280;36992;48.200;12.418;2022-08-02T08:56:51;96998.78;;;26.52;40.00
50977;BME280;36992;48.200;12.418;2022-08-02T08:59:19;96995.22;;;26.52;40.15
50977;BME280;36992;48.200;12.418;2022-08-02T09:01:46;96991.66;;;26.55;39.98
50977;BME280;36992;48.200;12.418;2022-08-02T09:04:14;96991.28;;;26.60;40.46
50977;BME280;36992;48.200;12.418;2022-08-02T09:06:41;96980.25;;;26.64;40.45
50977;BME280;36992;48.200;12.418;2022-08-02T09:09:08;96998.00;;;26.70;39.97
50977;BME280;36992;48.200;12.418;2022-08-02T09:11:34;96993.28;;;26.78;39.96
50977;BME280;36992;48.200;12.418;2022-08-02T09:14:03;96996.06;;;26.85;40.25
50977;BME280;36992;48.200;12.418;2022-08-02T09:16:32;96996.88;;;26.93;39.79
50977;BME280;36992;48.200;12.418;2022-08-02T09:18:59;96987.00;;;26.99;39.84
50977;BME280;36992;48.200;12.418;2022-08-02T09:21:33;96992.13;;;27.12;39.66
50977;BME280;36992;48.200;12.418;2022-08-02T09:24:00;96986.22;;;27.17;38.39
50977;BME280;36992;48.200;12.418;2022-08-02T09:26:27;96988.97;;;27.20;38.27
50977;BME280;36992;48.200;12.418;2022-08-02T09:28:59;96984.22;;;27.28;38.73
50977;BME280;36992;48.200;12.418;2022-08-02T09:31:27;96985.81;;;27.29;38.40
50977;BME280;36992;48.200;12.418;2022-08-02T09:33:56;96988.97;;;27.31;37.89
50977;BME280;36992;48.200;12.418;2022-08-02T09:36:23;96989.34;;;27.37;37.23
50977;BME280;36992;48.200;12.418;2022-08-02T09:38:53;96982.25;;;27.43;37.41
50977;BME280;36992;48.200;12.418;2022-08-02T09:41:21;96985.00;;;27.47;34.94
50977;BME280;36992;48.200;12.418;2022-08-02T09:43:48;96990.09;;;27.52;35.52
50977;BME280;36992;48.200;12.418;2022-08-02T09:46:16;96990.13;;;27.59;36.36
50977;BME280;36992;48.200;12.418;2022-08-02T09:48:50;96984.56;;;27.67;36.04
50977;BME280;36992;48.200;12.418;2022-08-02T09:51:19;96984.19;;;27.68;36.22
50977;BME280;36992;48.200;12.418;2022-08-02T09:53:47;96991.28;;;27.73;35.95
50977;BME280;36992;48.200;12.418;2022-08-02T09:56:15;96988.88;;;27.79;36.28
50977;BME280;36992;48.200;12.418;2022-08-02T09:58:42;96991.63;;;27.82;35.77
50977;BME280;36992;48.200;12.418;2022-08-02T10:01:08;96990.81;;;27.89;36.39
50977;BME280;36992;48.200;12.418;2022-08-02T10:03:35;96986.84;;;27.94;34.96
50977;BME280;36992;48.200;12.418;2022-08-02T10:06:03;96991.16;;;27.98;36.11
50977;BME280;36992;48.200;12.418;2022-08-02T10:08:30;96989.97;;;28.03;36.17
50977;BME280;36992;48.200;12.418;2022-08-02T10:10:58;96982.44;;;28.07;35.32
50977;BME280;36992;48.200;12.418;2022-08-02T10:13:29;96980.06;;;28.13;34.58
50977;BME280;36992;48.200;12.418;2022-08-02T10:15:55;96982.81;;;28.17;34.36
50977;BME280;36992;48.200;12.418;2022-08-02T10:18:22;96975.66;;;28.19;34.37
50977;BME280;36992;48.200;12.418;2022-08-02T10:20:49;96975.69;;;28.23;34.81
50977;BME280;36992;48.200;12.418;2022-08-02T10:23:18;96970.50;;;28.28;34.47
50977;BME280;36992;48.200;12.418;2022-08-02T10:25:47;96967.69;;;28.32;34.90
50977;BME280;36992;48.200;12.418;2022-08-02T10:28:15;96965.72;;;28.33;34.91
50977;BME280;36992;48.200;12.418;2022-08-02T10:30:44;96969.25;;;28.40;35.39
50977;BME280;36992;48.200;12.418;2022-08-02T10:33:16;96962.88;;;28.47;34.98
50977;BME280;36992;48.200;12.418;2022-08-02T10:35:45;96977.09;;;28.53;34.50
50977;BME280;36992;48.200;12.418;2022-08-02T10:38:15;96965.97;;;28.60;34.36
50977;BME280;36992;48.200;12.418;2022-08-02T10:40:45;96969.44;;;28.68;34.89
50977;BME280;36992;48.200;12.418;2022-08-02T10:43:42;96961.06;;;28.79;35.14
50977;BME280;36992;48.200;12.418;2022-08-02T10:46:29;96960.19;;;28.89;35.03
50977;BME280;36992;48.200;12.418;2022-08-02T10:49:05;96962.53;;;28.94;34.50
50977;BME280;36992;48.200;12.418;2022-08-02T10:51:58;96945.03;;;29.05;35.31
50977;BME280;36992;48.200;12.418;2022-08-02T10:54:32;96950.53;;;29.08;34.21
50977;BME280;36992;48.200;12.418;2022-08-02T10:57:00;96947.69;;;29.16;33.91
50977;BME280;36992;48.200;12.418;2022-08-02T10:59:28;96944.88;;;29.19;33.01
50977;BME280;36992;48.200;12.418;2022-08-02T11:01:56;96939.69;;;29.25;32.49
50977;BME280;36992;48.200;12.418;2022-08-02T11:04:31;96936.41;;;29.34;33.29
50977;BME280;36992;48.200;12.418;2022-08-02T11:07:09;96944.69;;;29.41;33.52
50977;BME280;36992;48.200;12.418;2022-08-02T11:09:36;96936.41;;;29.38;32.37
50977;BME280;36992;48.200;12.418;2022-08-02T11:12:06;96942.69;;;29.42;31.96
50977;BME280;36992;48.200;12.418;2022-08-02T11:14:34;96940.34;;;29.37;33.01
50977;BME280;36992;48.200;12.418;2022-08-02T11:17:12;96939.94;;;29.38;32.55
50977;BME280;36992;48.200;12.418;2022-08-02T11:20:16;96942.31;;;29.40;32.84
50977;BME280;36992;48.200;12.418;2022-08-02T11:22:44;96933.28;;;29.32;32.81
50977;BME280;36992;48.200;12.418;2022-08-02T11:25:32;96935.97;;;29.39;33.25
50977;BME280;36992;48.200;12.418;2022-08-02T11:28:08;96935.59;;;29.37;33.29
50977;BME280;36992;48.200;12.418;2022-08-02T11:30:35;96934.84;;;29.33;32.05
50977;BME280;36992;48.200;12.418;2022-08-02T11:33:03;96933.63;;;29.34;32.14
50977;BME280;36992;48.200;12.418;2022-08-02T11:35:33;96928.03;;;29.41;32.80
50977;BME280;36992;48.200;12.418;2022-08-02T11:38:14;96934.31;;;29.45;33.26
50977;BME280;36992;48.200;12.418;2022-08-02T11:40:41;96928.81;;;29.42;32.93
50977;BME280;36992;48.200;12.418;2022-08-02T11:43:21;96930.34;;;29.50;33.82
50977;BME280;36992;48.200;12.418;2022-08-02T11:45:49;96921.63;;;29.48;34.12
50977;BME280;36992;48.200;12.418;2022-08-02T11:48:29;96921.16;;;29.57;33.49
50977;BME280;36992;48.200;12.418;2022-08-02T11:51:07;96918.28;;;29.64;33.23
50977;BME280;36992;48.200;12.418;2022-08-02T11:53:40;96913.47;;;29.68;32.86
50977;BME280;36992;48.200;12.418;2022-08-02T11:56:07;96905.56;;;29.67;31.45
50977;BME280;36992;48.200;12.418;2022-08-02T11:58:35;96910.66;;;29.72;32.78
50977;BME280;36992;48.200;12.418;2022-08-02T12:01:02;96903.84;;;29.77;32.16
50977;BME280;36992;48.200;12.418;2022-08-02T12:03:33;96900.97;;;29.84;33.63
50977;BME280;36992;48.200;12.418;2022-08-02T12:05:59;96896.59;;;29.86;32.72
50977;BME280;36992;48.200;12.418;2022-08-02T12:08:26;96899.66;;;29.96;31.18
50977;BME280;36992;48.200;12.418;2022-08-02T12:10:52;96908.69;;;30.04;31.63
50977;BME280;36992;48.200;12.418;2022-08-02T12:13:19;96901.84;;;30.12;32.00
50977;BME280;36992;48.200;12.418;2022-08-02T12:15:47;96910.41;;;30.21;32.03
50977;BME280;36992;48.200;12.418;2022-08-02T12:18:15;96905.97;;;30.27;32.15
50977;BME280;36992;48.200;12.418;2022-08-02T12:21:00;96908.66;;;30.35;31.49
50977;BME280;36992;48.200;12.418;2022-08-02T12:23:27;96902.59;;;30.40;31.20
50977;BME280;36992;48.200;12.418;2022-08-02T12:26:02;96895.81;;;30.45;32.02
50977;BME280;36992;48.200;12.418;2022-08-02T12:28:31;96899.16;;;30.60;32.23
50977;BME280;36992;48.200;12.418;2022-08-02T12:31:00;96897.38;;;30.46;31.35
50977;BME280;36992;48.200;12.418;2022-08-02T12:33:28;96900.56;;;30.44;31.47
50977;BME280;36992;48.200;12.418;2022-08-02T12:35:55;96905.78;;;30.42;30.91
50977;BME280;36992;48.200;12.418;2022-08-02T12:38:22;96904.56;;;30.43;31.96
50977;BME280;36992;48.200;12.418;2022-08-02T12:40:48;96897.78;;;30.44;31.39
50977;BME280;36992;48.200;12.418;2022-08-02T12:43:17;96898.88;;;30.50;31.50
50977;BME280;36992;48.200;12.418;2022-08-02T12:45:45;96902.41;;;30.54;30.83
50977;BME280;36992;48.200;12.418;2022-08-02T12:48:14;96893.94;;;30.62;30.78
50977;BME280;36992;48.200;12.418;2022-08-02T12:50:41;96892.31;;;30.64;31.13
50977;BME280;36992;48.200;12.418;2022-08-02T12:53:10;96899.75;;;30.71;30.41
50977;BME280;36992;48.200;12.418;2022-08-02T12:55:46;96898.81;;;30.81;31.02
50977;BME280;36992;48.200;12.418;2022-08-02T12:58:13;96898.38;;;30.83;30.43
50977;BME280;36992;48.200;12.418;2022-08-02T13:00:40;96888.41;;;30.86;30.95